Time;durP1;ratioP1;P1;durP2;ratioP2;P2;SDS_P1;SDS_P2;PMS_P1;PMS_P2;Temp;Humidity;BMP_temperature;BMP_pressure;BME280_temperature;BME280_humidity;BME280_pressure;Samples;Min_cycle;Max_cycle;Signal;HPM_P1;HPM_P2
2022/03/11 00:00:57;;;;;;;7.43;3.15;;;;;;;;;;5094137;27;20115;-77
2022/03/11 00:03:23;;;;;;;6.00;3.35;;;;;;;;;;5093282;27;20036;-77
2022/03/11 00:05:51;;;;;;;5.35;3.65;;;;;;;;;;5091709;27;20109;-77
2022/03/11 00:08:17;;;;;;;6.07;3.47;;;;;;;;;;5095326;27;20127;-77
2022/03/11 00:10:43;;;;;;;7.53;3.70;;;;;;;;;;5093627;27;20047;-77
2022/03/11 00:13:09;;;;;;;8.52;4.07;;;;;;;;;;5090770;27;20051;-77
2022/03/11 00:15:35;;;;;;;6.47;3.60;;;;;;;;;;5079126;27;20041;-77
2022/03/11 00:18:01;;;;;;;7.07;3.72;;;;;;;;;;5073364;27;20046;-77
2022/03/11 00:20:28;;;;;;;8.55;4.57;;;;;;;;;;5091867;28;20098;-77
2022/03/11 00:22:54;;;;;;;7.82;4.00;;;;;;;;;;5092628;27;20530;-77
2022/03/11 00:25:21;;;;;;;7.45;3.25;;;;;;;;;;5080354;27;20032;-77
2022/03/11 00:27:47;;;;;;;7.13;4.15;;;;;;;;;;5073218;27;20530;-77
2022/03/11 00:30:13;;;;;;;8.75;4.22;;;;;;;;;;5095590;27;20048;-77
2022/03/11 00:32:41;;;;;;;6.20;3.33;;;;;;;;;;5077716;27;20620;-77
2022/03/11 00:35:09;;;;;;;13.60;3.78;;;;;;;;;;5092940;27;20058;-77
2022/03/11 00:37:36;;;;;;;7.20;3.92;;;;;;;;;;5095659;27;20040;-77
2022/03/11 00:40:02;;;;;;;7.85;3.25;;;;;;;;;;5080282;27;20500;-76
2022/03/11 00:42:28;;;;;;;8.55;4.35;;;;;;;;;;5077533;28;20528;-76
2022/03/11 00:44:54;;;;;;;7.93;3.88;;;;;;;;;;5076146;27;20047;-77
2022/03/11 00:47:20;;;;;;;7.53;3.95;;;;;;;;;;5079091;27;20036;-77
2022/03/11 00:49:46;;;;;;;8.10;3.85;;;;;;;;;;5092548;27;20044;-76
2022/03/11 00:52:12;;;;;;;8.20;3.88;;;;;;;;;;5071643;28;20043;-77
2022/03/11 00:54:38;;;;;;;7.97;3.72;;;;;;;;;;5092081;27;20208;-77
2022/03/11 00:57:04;;;;;;;6.18;3.35;;;;;;;;;;5094545;27;20070;-77
2022/03/11 00:59:31;;;;;;;4.85;3.03;;;;;;;;;;5089243;27;20048;-77
2022/03/11 01:01:57;;;;;;;5.57;3.35;;;;;;;;;;5079769;28;20036;-77
2022/03/11 01:04:23;;;;;;;7.10;2.83;;;;;;;;;;5074766;28;20044;-76
2022/03/11 01:06:49;;;;;;;7.28;4.10;;;;;;;;;;5091347;27;20123;-76
2022/03/11 01:09:15;;;;;;;7.35;4.05;;;;;;;;;;5075178;28;20122;-76
2022/03/11 01:11:42;;;;;;;7.55;3.53;;;;;;;;;;5093889;27;20127;-76
2022/03/11 01:14:08;;;;;;;6.75;3.60;;;;;;;;;;5093805;27;20044;-76
2022/03/11 01:16:34;;;;;;;10.82;3.85;;;;;;;;;;5074262;28;20040;-76
2022/03/11 01:19:00;;;;;;;5.75;3.58;;;;;;;;;;5076391;27;20047;-76
2022/03/11 01:21:26;;;;;;;6.82;3.25;;;;;;;;;;5092468;27;20036;-76
2022/03/11 01:23:56;;;;;;;5.90;3.63;;;;;;;;;;5073442;27;20049;-76
2022/03/11 01:26:22;;;;;;;6.40;3.00;;;;;;;;;;5092866;27;20044;-76
2022/03/11 01:28:49;;;;;;;5.82;3.45;;;;;;;;;;5095172;27;20051;-76
2022/03/11 01:31:16;;;;;;;6.05;4.15;;;;;;;;;;5071285;27;20040;-76
2022/03/11 01:33:43;;;;;;;5.35;3.33;;;;;;;;;;5091063;27;20119;-76
2022/03/11 01:36:10;;;;;;;6.18;3.33;;;;;;;;;;5073801;27;20040;-77
2022/03/11 01:38:36;;;;;;;8.80;3.90;;;;;;;;;;5075226;27;20527;-77
2022/03/11 01:41:03;;;;;;;6.32;3.40;;;;;;;;;;5091334;27;20105;-77
2022/03/11 01:43:29;;;;;;;6.22;3.63;;;;;;;;;;5076877;28;20537;-77
2022/03/11 01:45:56;;;;;;;6.25;3.05;;;;;;;;;;5074845;27;20115;-76
2022/03/11 01:48:22;;;;;;;6.55;4.10;;;;;;;;;;5093856;27;20119;-76
2022/03/11 01:50:48;;;;;;;6.80;4.22;;;;;;;;;;5098031;27;20090;-77
2022/03/11 01:53:15;;;;;;;6.07;3.25;;;;;;;;;;5076584;27;20338;-77
2022/03/11 01:55:41;;;;;;;6.35;3.33;;;;;;;;;;5073772;27;20077;-78
2022/03/11 01:58:08;;;;;;;8.25;3.80;;;;;;;;;;5081309;27;20048;-77
2022/03/11 02:00:38;;;;;;;7.18;3.65;;;;;;;;;;5073767;27;20040;-77
2022/03/11 02:03:04;;;;;;;7.35;3.85;;;;;;;;;;5068158;27;20817;-77
2022/03/11 02:05:30;;;;;;;5.63;3.28;;;;;;;;;;5075213;27;20048;-77
2022/03/11 02:07:58;;;;;;;6.53;3.80;;;;;;;;;;5093720;27;20047;-77
2022/03/11 02:10:25;;;;;;;7.55;3.65;;;;;;;;;;5075481;27;20794;-77
2022/03/11 02:12:52;;;;;;;6.15;3.20;;;;;;;;;;5092719;27;20498;-77
2022/03/11 02:15:18;;;;;;;5.40;2.70;;;;;;;;;;5075468;27;20115;-77
2022/03/11 02:17:44;;;;;;;5.38;2.45;;;;;;;;;;5075490;27;20127;-77
2022/03/11 02:20:10;;;;;;;5.05;3.30;;;;;;;;;;5073349;27;20036;-77
2022/03/11 02:22:39;;;;;;;7.13;3.30;;;;;;;;;;5072754;27;20055;-77
2022/03/11 02:25:07;;;;;;;6.88;3.15;;;;;;;;;;5064604;27;20040;-77
2022/03/11 02:27:39;;;;;;;5.13;3.22;;;;;;;;;;5077695;28;20044;-77
2022/03/11 02:30:12;;;;;;;5.82;2.88;;;;;;;;;;5071917;28;20081;-77
2022/03/11 02:32:39;;;;;;;6.70;3.30;;;;;;;;;;5074412;27;20048;-77
2022/03/11 02:35:05;;;;;;;6.97;4.05;;;;;;;;;;5074744;27;20032;-77
2022/03/11 02:37:31;;;;;;;5.30;2.70;;;;;;;;;;5093480;27;20040;-77
2022/03/11 02:39:57;;;;;;;5.65;2.85;;;;;;;;;;5088906;27;20094;-77
2022/03/11 02:42:26;;;;;;;4.22;2.65;;;;;;;;;;5090181;27;20041;-78
2022/03/11 02:44:52;;;;;;;5.85;3.03;;;;;;;;;;5073881;27;20528;-77
2022/03/11 02:47:18;;;;;;;5.97;3.00;;;;;;;;;;5075697;27;20526;-77
2022/03/11 02:49:44;;;;;;;5.38;2.95;;;;;;;;;;5072685;28;20040;-77
2022/03/11 02:52:10;;;;;;;4.28;2.80;;;;;;;;;;5075597;28;20047;-77
2022/03/11 02:54:38;;;;;;;6.32;3.60;;;;;;;;;;5087425;27;20772;-77
2022/03/11 02:57:04;;;;;;;7.50;3.67;;;;;;;;;;5075579;28;20036;-76
2022/03/11 02:59:31;;;;;;;4.97;3.05;;;;;;;;;;5096316;27;20041;-77
2022/03/11 03:01:57;;;;;;;6.20;2.85;;;;;;;;;;5080361;28;20891;-77
2022/03/11 03:04:23;;;;;;;4.78;2.55;;;;;;;;;;5100301;27;20041;-77
2022/03/11 03:06:49;;;;;;;3.97;2.53;;;;;;;;;;5099820;27;20110;-77
2022/03/11 03:09:15;;;;;;;5.43;3.03;;;;;;;;;;5076357;28;20150;-77
2022/03/11 03:11:41;;;;;;;8.52;3.70;;;;;;;;;;5095171;27;20059;-77
2022/03/11 03:14:07;;;;;;;5.95;2.95;;;;;;;;;;5096736;27;20040;-77
2022/03/11 03:16:33;;;;;;;6.55;3.10;;;;;;;;;;5072051;28;20040;-77
2022/03/11 03:18:59;;;;;;;6.53;3.30;;;;;;;;;;5078324;28;20040;-77
2022/03/11 03:21:27;;;;;;;5.55;3.55;;;;;;;;;;5078212;28;20048;-77
2022/03/11 03:23:53;;;;;;;6.25;3.25;;;;;;;;;;5096498;27;20110;-77
2022/03/11 03:26:19;;;;;;;5.13;3.47;;;;;;;;;;5075891;28;20091;-77
2022/03/11 03:28:45;;;;;;;7.95;3.60;;;;;;;;;;5081032;27;20094;-76
2022/03/11 03:31:11;;;;;;;6.38;3.70;;;;;;;;;;5081393;28;20999;-77
2022/03/11 03:33:37;;;;;;;6.72;3.80;;;;;;;;;;5076570;27;20090;-77
2022/03/11 03:36:04;;;;;;;7.32;3.20;;;;;;;;;;5077639;28;20044;-77
2022/03/11 03:38:30;;;;;;;5.15;3.40;;;;;;;;;;5096842;27;20043;-77
2022/03/11 03:40:56;;;;;;;5.65;3.00;;;;;;;;;;5100522;27;20040;-77
2022/03/11 03:43:22;;;;;;;6.28;3.08;;;;;;;;;;5101096;27;20897;-78
2022/03/11 03:45:48;;;;;;;6.65;2.95;;;;;;;;;;5083444;27;20093;-77
2022/03/11 03:48:14;;;;;;;5.72;2.88;;;;;;;;;;5084393;27;20036;-76
2022/03/11 03:50:40;;;;;;;9.88;3.20;;;;;;;;;;5074494;27;20044;-77
2022/03/11 03:53:07;;;;;;;6.18;3.25;;;;;;;;;;5076399;28;20040;-77
2022/03/11 03:55:33;;;;;;;5.15;3.13;;;;;;;;;;5099618;27;20041;-77
2022/03/11 03:57:59;;;;;;;6.78;3.20;;;;;;;;;;5097482;27;20043;-77
2022/03/11 04:00:25;;;;;;;5.97;2.92;;;;;;;;;;5078356;27;20032;-77
2022/03/11 04:02:52;;;;;;;7.75;3.00;;;;;;;;;;5096577;27;20048;-77
2022/03/11 04:05:19;;;;;;;6.70;2.97;;;;;;;;;;5075394;28;20064;-77
2022/03/11 04:07:48;;;;;;;5.50;2.97;;;;;;;;;;5100836;27;20235;-76
2022/03/11 04:10:15;;;;;;;5.95;3.30;;;;;;;;;;5080282;28;20343;-78
2022/03/11 04:12:41;;;;;;;6.20;3.15;;;;;;;;;;5093530;28;20044;-77
2022/03/11 04:15:08;;;;;;;5.40;3.40;;;;;;;;;;5076739;28;20043;-77
2022/03/11 04:17:34;;;;;;;6.47;3.17;;;;;;;;;;5077705;28;20071;-77
2022/03/11 04:20:01;;;;;;;4.88;2.80;;;;;;;;;;5082890;28;20036;-77
2022/03/11 04:22:27;;;;;;;4.53;3.28;;;;;;;;;;5081421;28;20055;-77
2022/03/11 04:24:53;;;;;;;6.30;2.95;;;;;;;;;;5099635;27;20503;-77
2022/03/11 04:27:19;;;;;;;8.02;3.55;;;;;;;;;;5081111;28;20040;-78
2022/03/11 04:29:45;;;;;;;4.63;2.97;;;;;;;;;;5075607;28;20052;-76
2022/03/11 04:32:13;;;;;;;5.93;3.97;;;;;;;;;;5098537;27;20024;-78
2022/03/11 04:34:39;;;;;;;8.75;3.13;;;;;;;;;;5093999;27;20066;-77
2022/03/11 04:37:05;;;;;;;6.13;2.97;;;;;;;;;;5077656;28;20328;-77
2022/03/11 04:39:31;;;;;;;5.97;3.80;;;;;;;;;;5092983;27;20032;-77
2022/03/11 04:41:57;;;;;;;6.05;3.28;;;;;;;;;;5076403;28;20048;-77
2022/03/11 04:44:24;;;;;;;8.18;3.50;;;;;;;;;;5097576;27;20044;-77
2022/03/11 04:46:50;;;;;;;6.15;2.97;;;;;;;;;;5079455;28;20085;-77
2022/03/11 04:49:16;;;;;;;6.28;3.60;;;;;;;;;;5096308;27;20151;-78
2022/03/11 04:51:42;;;;;;;5.47;2.83;;;;;;;;;;5076442;27;20041;-77
2022/03/11 04:54:09;;;;;;;6.45;3.47;;;;;;;;;;5096673;27;20486;-78
2022/03/11 04:56:37;;;;;;;9.07;3.50;;;;;;;;;;5096864;27;20123;-78
2022/03/11 04:59:03;;;;;;;5.50;3.47;;;;;;;;;;5093416;27;20089;-77
2022/03/11 05:01:30;;;;;;;4.65;3.25;;;;;;;;;;5077250;28;20418;-77
2022/03/11 05:03:56;;;;;;;7.40;3.65;;;;;;;;;;5082602;27;20044;-78
2022/03/11 05:06:22;;;;;;;5.15;2.88;;;;;;;;;;5097840;27;20056;-77
2022/03/11 05:08:48;;;;;;;5.18;2.70;;;;;;;;;;5077814;28;20032;-77
2022/03/11 05:11:14;;;;;;;5.70;3.00;;;;;;;;;;5079851;27;20046;-77
2022/03/11 05:13:40;;;;;;;4.75;2.65;;;;;;;;;;5077457;27;20051;-77
2022/03/11 05:16:06;;;;;;;6.43;3.10;;;;;;;;;;5078707;27;20036;-77
2022/03/11 05:18:34;;;;;;;7.78;3.70;;;;;;;;;;5077668;28;20046;-78
2022/03/11 05:21:00;;;;;;;6.32;2.90;;;;;;;;;;5094323;27;20064;-78
2022/03/11 05:23:27;;;;;;;6.63;3.10;;;;;;;;;;5094593;27;20128;-78
2022/03/11 05:25:53;;;;;;;6.88;3.05;;;;;;;;;;5077528;28;20044;-78
2022/03/11 05:28:19;;;;;;;10.45;3.33;;;;;;;;;;5072872;28;20037;-77
2022/03/11 05:30:45;;;;;;;6.80;3.22;;;;;;;;;;5075653;27;20551;-77
2022/03/11 05:33:11;;;;;;;5.65;3.00;;;;;;;;;;5091433;27;20047;-78
2022/03/11 05:35:37;;;;;;;6.55;3.22;;;;;;;;;;5075572;28;20037;-79
2022/03/11 05:38:04;;;;;;;6.40;3.28;;;;;;;;;;5094958;27;20041;-77
2022/03/11 05:40:30;;;;;;;6.45;3.20;;;;;;;;;;5095145;27;20041;-77
2022/03/11 05:42:56;;;;;;;5.65;2.63;;;;;;;;;;5073434;28;20087;-78
2022/03/11 05:45:22;;;;;;;6.78;3.88;;;;;;;;;;5091499;27;20121;-77
2022/03/11 05:47:49;;;;;;;4.72;2.53;;;;;;;;;;5073735;27;20039;-77
2022/03/11 05:50:17;;;;;;;5.90;2.97;;;;;;;;;;5074501;28;20200;-78
2022/03/11 05:52:43;;;;;;;5.18;2.63;;;;;;;;;;5093656;27;20063;-78
2022/03/11 05:55:10;;;;;;;4.68;2.83;;;;;;;;;;5072773;28;20041;-77
2022/03/11 05:57:36;;;;;;;6.30;2.88;;;;;;;;;;5073713;28;20060;-77
2022/03/11 06:00:04;;;;;;;4.70;2.08;;;;;;;;;;5077440;28;20044;-78
2022/03/11 06:02:30;;;;;;;4.57;2.10;;;;;;;;;;5074805;28;20048;-78
2022/03/11 06:04:56;;;;;;;6.30;3.13;;;;;;;;;;5093734;27;20056;-77
2022/03/11 06:07:22;;;;;;;5.93;2.78;;;;;;;;;;5074792;27;20561;-77
2022/03/11 06:09:48;;;;;;;5.97;3.55;;;;;;;;;;5076018;27;20089;-77
2022/03/11 06:12:19;;;;;;;6.03;2.55;;;;;;;;;;5074308;27;20083;-77
2022/03/11 06:14:45;;;;;;;8.45;4.45;;;;;;;;;;5093790;27;20051;-79
2022/03/11 06:17:20;;;;;;;6.47;3.00;;;;;;;;;;5076430;28;20576;-79
2022/03/11 06:20:00;;;;;;;5.25;2.78;;;;;;;;;;5088482;27;20166;-79
2022/03/11 06:22:46;;;;;;;4.65;2.75;;;;;;;;;;5092310;27;20043;-79
2022/03/11 06:25:12;;;;;;;6.45;3.35;;;;;;;;;;5071267;27;20102;-81
2022/03/11 06:27:41;;;;;;;4.47;2.42;;;;;;;;;;5073701;27;20044;-77
2022/03/11 06:30:16;;;;;;;6.85;2.70;;;;;;;;;;5077044;27;20066;-77
2022/03/11 06:32:51;;;;;;;5.82;3.33;;;;;;;;;;5076817;27;20145;-78
2022/03/11 06:35:26;;;;;;;5.43;2.88;;;;;;;;;;5075589;28;20044;-77
2022/03/11 06:37:54;;;;;;;4.85;2.67;;;;;;;;;;5074190;28;21735;-77
2022/03/11 06:40:31;;;;;;;6.97;3.00;;;;;;;;;;5076977;28;21059;-77
2022/03/11 06:43:03;;;;;;;4.25;2.40;;;;;;;;;;5091320;27;20044;-76
2022/03/11 06:45:29;;;;;;;5.00;2.55;;;;;;;;;;5073450;28;20048;-79
2022/03/11 06:47:55;;;;;;;5.60;2.65;;;;;;;;;;5093750;27;20042;-79
2022/03/11 06:50:21;;;;;;;5.07;3.00;;;;;;;;;;5089117;27;20093;-79
2022/03/11 06:52:48;;;;;;;6.10;2.35;;;;;;;;;;5094871;27;20048;-79
2022/03/11 06:55:14;;;;;;;4.13;2.63;;;;;;;;;;5071719;28;20160;-79
2022/03/11 06:57:40;;;;;;;3.78;2.33;;;;;;;;;;5072786;28;20570;-79
2022/03/11 07:00:07;;;;;;;5.18;2.67;;;;;;;;;;5072244;28;20047;-80
2022/03/11 07:02:36;;;;;;;3.72;2.30;;;;;;;;;;5092031;27;20060;-79
2022/03/11 07:05:03;;;;;;;4.80;2.22;;;;;;;;;;5087713;27;20049;-79
2022/03/11 07:07:30;;;;;;;4.55;2.20;;;;;;;;;;5072545;28;20045;-79
2022/03/11 07:09:56;;;;;;;4.40;2.67;;;;;;;;;;5091345;27;20040;-78
2022/03/11 07:12:22;;;;;;;4.43;1.92;;;;;;;;;;5075689;28;20098;-79
2022/03/11 07:14:48;;;;;;;3.15;1.98;;;;;;;;;;5068811;28;20040;-79
2022/03/11 07:17:14;;;;;;;4.13;1.95;;;;;;;;;;5076402;27;20037;-77
2022/03/11 07:19:41;;;;;;;3.60;1.88;;;;;;;;;;5070963;28;20877;-79
2022/03/11 07:22:07;;;;;;;5.20;2.13;;;;;;;;;;5069241;28;20051;-79
2022/03/11 07:24:33;;;;;;;5.88;2.00;;;;;;;;;;5081732;27;20051;-79
2022/03/11 07:27:00;;;;;;;5.88;1.73;;;;;;;;;;5072523;27;20068;-80
2022/03/11 07:29:26;;;;;;;3.50;1.83;;;;;;;;;;5073634;27;20044;-79
2022/03/11 07:31:52;;;;;;;2.30;1.42;;;;;;;;;;5073695;27;20131;-79
2022/03/11 07:34:18;;;;;;;4.38;2.28;;;;;;;;;;5074362;27;20146;-79
2022/03/11 07:36:45;;;;;;;5.43;2.17;;;;;;;;;;5069712;27;20041;-80
2022/03/11 07:39:11;;;;;;;5.78;2.17;;;;;;;;;;5068894;27;20829;-79
2022/03/11 07:41:37;;;;;;;4.10;2.00;;;;;;;;;;5074521;27;20043;-79
2022/03/11 07:44:04;;;;;;;3.03;2.00;;;;;;;;;;5092373;27;20068;-80
2022/03/11 07:46:30;;;;;;;4.22;1.73;;;;;;;;;;5071571;28;20041;-79
2022/03/11 07:48:57;;;;;;;3.08;1.90;;;;;;;;;;5078980;27;20052;-79
2022/03/11 07:51:25;;;;;;;3.35;2.08;;;;;;;;;;5090083;27;20546;-79
2022/03/11 07:53:52;;;;;;;3.30;2.10;;;;;;;;;;5083765;27;20552;-79
2022/03/11 07:56:18;;;;;;;3.22;1.52;;;;;;;;;;5086213;27;20032;-79
2022/03/11 07:58:44;;;;;;;3.42;2.08;;;;;;;;;;5073459;27;20055;-79
2022/03/11 08:01:11;;;;;;;6.63;2.28;;;;;;;;;;5069788;27;20055;-79
2022/03/11 08:03:37;;;;;;;4.22;2.08;;;;;;;;;;5073663;27;20047;-79
2022/03/11 08:06:04;;;;;;;3.15;1.65;;;;;;;;;;5092763;27;20139;-80
2022/03/11 08:08:30;;;;;;;3.53;1.83;;;;;;;;;;5068103;27;20044;-79
2022/03/11 08:10:56;;;;;;;2.28;1.30;;;;;;;;;;5068905;28;20088;-80
2022/03/11 08:13:23;;;;;;;2.70;1.85;;;;;;;;;;5092425;27;20032;-80
2022/03/11 08:15:49;;;;;;;3.40;1.67;;;;;;;;;;5070789;28;20055;-79
2022/03/11 08:18:15;;;;;;;2.05;1.40;;;;;;;;;;5074763;28;20120;-80
2022/03/11 08:20:42;;;;;;;3.88;1.75;;;;;;;;;;5087210;27;20546;-80
2022/03/11 08:23:08;;;;;;;2.88;1.73;;;;;;;;;;5090340;27;20082;-79
2022/03/11 08:25:35;;;;;;;2.55;1.60;;;;;;;;;;5087198;27;20134;-79
2022/03/11 08:28:02;;;;;;;3.22;1.90;;;;;;;;;;5072518;28;20227;-79
2022/03/11 08:30:29;;;;;;;2.97;1.70;;;;;;;;;;5092585;27;20127;-80
2022/03/11 08:32:56;;;;;;;5.75;1.90;;;;;;;;;;5098159;27;20129;-79
2022/03/11 08:35:22;;;;;;;2.83;1.70;;;;;;;;;;5074075;28;20032;-79
2022/03/11 08:37:48;;;;;;;1.77;1.38;;;;;;;;;;5093950;27;20840;-79
2022/03/11 08:40:15;;;;;;;2.92;1.70;;;;;;;;;;5076896;28;20151;-80
2022/03/11 08:42:41;;;;;;;2.92;1.70;;;;;;;;;;5079388;27;20038;-80
2022/03/11 08:45:08;;;;;;;2.28;1.23;;;;;;;;;;5078918;28;20093;-80
2022/03/11 08:47:35;;;;;;;3.63;1.50;;;;;;;;;;5075241;28;20067;-80
2022/03/11 08:50:02;;;;;;;1.90;1.08;;;;;;;;;;5093462;27;20051;-79
2022/03/11 08:52:29;;;;;;;2.22;1.13;;;;;;;;;;5072776;28;20052;-79
2022/03/11 08:54:55;;;;;;;1.73;1.25;;;;;;;;;;5093484;27;20060;-80
2022/03/11 08:57:21;;;;;;;4.30;1.42;;;;;;;;;;5074678;28;20036;-79
2022/03/11 08:59:47;;;;;;;2.80;1.50;;;;;;;;;;5075920;27;20232;-80
2022/03/11 09:02:15;;;;;;;2.63;1.73;;;;;;;;;;5079276;27;20036;-78
2022/03/11 09:04:41;;;;;;;3.28;1.70;;;;;;;;;;5070357;27;20876;-79
2022/03/11 09:07:08;;;;;;;3.33;1.33;;;;;;;;;;5095469;27;20040;-80
2022/03/11 09:09:36;;;;;;;2.33;1.17;;;;;;;;;;5077459;28;20063;-79
2022/03/11 09:12:03;;;;;;;2.97;1.50;;;;;;;;;;5093111;27;20094;-79
2022/03/11 09:14:32;;;;;;;2.17;1.20;;;;;;;;;;5074690;28;20573;-80
2022/03/11 09:16:59;;;;;;;2.30;1.10;;;;;;;;;;5093692;27;20083;-79
2022/03/11 09:19:25;;;;;;;3.20;1.63;;;;;;;;;;5081099;27;20588;-79
2022/03/11 09:21:51;;;;;;;1.92;1.10;;;;;;;;;;5076764;28;20205;-79
2022/03/11 09:24:17;;;;;;;2.25;1.23;;;;;;;;;;5075980;27;20595;-79
2022/03/11 09:26:52;;;;;;;1.63;1.02;;;;;;;;;;5072243;27;20040;-79
2022/03/11 09:29:36;;;;;;;1.52;1.30;;;;;;;;;;5073539;27;20142;-80
2022/03/11 09:32:03;;;;;;;2.28;1.42;;;;;;;;;;5074650;28;20036;-79
2022/03/11 09:34:29;;;;;;;2.65;1.25;;;;;;;;;;5075002;28;20485;-79
2022/03/11 09:36:55;;;;;;;2.00;1.30;;;;;;;;;;5089436;27;20078;-79
2022/03/11 09:39:24;;;;;;;2.00;1.35;;;;;;;;;;5075577;28;20139;-79
2022/03/11 09:41:51;;;;;;;3.17;1.73;;;;;;;;;;5086940;27;20123;-79
2022/03/11 09:44:17;;;;;;;1.70;1.20;;;;;;;;;;5073857;28;20038;-79
2022/03/11 09:46:44;;;;;;;1.92;1.23;;;;;;;;;;5076270;28;20043;-79
2022/03/11 09:49:19;;;;;;;2.17;1.25;;;;;;;;;;5076426;28;20048;-79
2022/03/11 09:51:48;;;;;;;2.25;1.45;;;;;;;;;;5095086;27;20481;-79
2022/03/11 09:54:15;;;;;;;2.35;1.60;;;;;;;;;;5074497;28;20598;-79
2022/03/11 09:56:42;;;;;;;2.60;1.35;;;;;;;;;;5077983;28;20037;-79
2022/03/11 09:59:09;;;;;;;4.05;1.40;;;;;;;;;;5069238;28;20048;-79
2022/03/11 10:01:35;;;;;;;2.92;1.58;;;;;;;;;;5074283;28;20075;-79
2022/03/11 10:04:05;;;;;;;3.08;1.63;;;;;;;;;;5074395;28;20040;-79
2022/03/11 10:06:41;;;;;;;3.13;1.20;;;;;;;;;;5092201;27;20058;-79
2022/03/11 10:09:30;;;;;;;5.70;1.88;;;;;;;;;;5091144;27;20048;-80
2022/03/11 10:11:57;;;;;;;2.58;1.65;;;;;;;;;;5071746;27;20135;-79
2022/03/11 10:14:36;;;;;;;2.50;1.58;;;;;;;;;;5092991;27;20554;-79
2022/03/11 10:17:18;;;;;;;2.65;1.55;;;;;;;;;;5091640;27;20035;-79
2022/03/11 10:20:04;;;;;;;2.20;1.10;;;;;;;;;;5093151;27;20094;-78
2022/03/11 10:22:31;;;;;;;1.80;1.35;;;;;;;;;;5074553;27;20136;-79
2022/03/11 10:25:08;;;;;;;1.85;1.20;;;;;;;;;;5070971;28;20051;-80
2022/03/11 10:27:39;;;;;;;3.17;1.20;;;;;;;;;;5072594;27;20044;-79
2022/03/11 10:30:15;;;;;;;2.75;1.38;;;;;;;;;;5056019;27;21101;-79
2022/03/11 10:32:50;;;;;;;2.90;1.55;;;;;;;;;;5090602;27;20093;-81
2022/03/11 10:35:20;;;;;;;1.92;1.08;;;;;;;;;;5074354;28;20032;-83
2022/03/11 10:37:56;;;;;;;2.10;1.35;;;;;;;;;;5071817;28;20036;-79
2022/03/11 10:40:22;;;;;;;2.53;1.27;;;;;;;;;;5090345;27;20040;-80
2022/03/11 10:42:48;;;;;;;2.85;1.50;;;;;;;;;;5073767;28;20028;-79
2022/03/11 10:45:14;;;;;;;1.85;1.15;;;;;;;;;;5086400;27;20056;-80
2022/03/11 10:47:41;;;;;;;1.77;1.02;;;;;;;;;;5073278;28;20064;-81
2022/03/11 10:50:12;;;;;;;3.58;1.60;;;;;;;;;;5079047;28;20040;-80
2022/03/11 10:52:45;;;;;;;1.63;1.10;;;;;;;;;;5077154;28;20060;-80
2022/03/11 10:55:26;;;;;;;2.72;1.23;;;;;;;;;;5077980;28;20087;-80
2022/03/11 10:57:56;;;;;;;2.17;1.33;;;;;;;;;;5076303;27;20072;-80
2022/03/11 11:00:26;;;;;;;1.92;1.33;;;;;;;;;;5088876;27;20048;-80
2022/03/11 11:02:57;;;;;;;2.25;1.38;;;;;;;;;;5072875;27;20201;-80
2022/03/11 11:05:23;;;;;;;2.40;1.35;;;;;;;;;;5076274;28;20639;-81
2022/03/11 11:07:52;;;;;;;4.13;2.28;;;;;;;;;;5073472;28;20132;-81
2022/03/11 11:10:20;;;;;;;3.05;1.55;;;;;;;;;;5072173;27;20144;-80
2022/03/11 11:12:46;;;;;;;1.90;1.13;;;;;;;;;;5069466;28;20043;-80
2022/03/11 11:15:13;;;;;;;2.65;1.33;;;;;;;;;;5068998;28;20183;-80
2022/03/11 11:17:51;;;;;;;3.78;1.50;;;;;;;;;;5074936;28;20036;-81
2022/03/11 11:20:18;;;;;;;3.08;1.50;;;;;;;;;;5080543;28;20043;-81
2022/03/11 11:22:47;;;;;;;4.63;1.95;;;;;;;;;;5076584;28;20040;-80
2022/03/11 11:25:17;;;;;;;3.35;2.00;;;;;;;;;;5078983;28;20048;-81
2022/03/11 11:27:52;;;;;;;4.38;1.98;;;;;;;;;;5077962;28;20048;-81
2022/03/11 11:30:22;;;;;;;2.65;1.33;;;;;;;;;;5079948;28;20097;-81
2022/03/11 11:32:52;;;;;;;2.53;1.40;;;;;;;;;;5082142;28;20082;-80
2022/03/11 11:35:27;;;;;;;3.15;1.67;;;;;;;;;;5073167;28;20045;-80
2022/03/11 11:37:57;;;;;;;6.50;2.58;;;;;;;;;;5076025;28;20047;-80
2022/03/11 11:40:25;;;;;;;2.58;1.55;;;;;;;;;;5077074;28;20065;-80
2022/03/11 11:43:31;;;;;;;2.65;1.83;;;;;;;;;;5072987;28;20114;-80
2022/03/11 11:46:19;;;;;;;3.80;1.80;;;;;;;;;;5079032;28;22245;-79
2022/03/11 11:48:49;;;;;;;2.90;2.00;;;;;;;;;;5072752;28;20229;-80
2022/03/11 11:51:16;;;;;;;2.97;1.42;;;;;;;;;;5078833;28;20044;-80
2022/03/11 11:54:08;;;;;;;14.55;2.13;;;;;;;;;;5077015;28;20090;-80
2022/03/11 11:56:43;;;;;;;2.80;1.75;;;;;;;;;;5077553;28;20048;-80
2022/03/11 11:59:20;;;;;;;3.45;1.92;;;;;;;;;;5082449;28;20454;-80
2022/03/11 12:01:47;;;;;;;3.00;2.00;;;;;;;;;;5080712;28;20045;-80
2022/03/11 12:04:20;;;;;;;4.63;2.17;;;;;;;;;;5078504;28;20519;-81
2022/03/11 12:07:09;;;;;;;5.20;2.25;;;;;;;;;;5076027;28;20056;-80
2022/03/11 12:12:26;;;;;;;5.78;2.10;;;;;;;;;;5080246;28;20050;-80
2022/03/11 12:15:04;;;;;;;4.55;2.45;;;;;;;;;;5076006;28;20136;-80
2022/03/11 12:17:45;;;;;;;4.25;2.08;;;;;;;;;;5074398;28;20041;-80
2022/03/11 12:20:36;;;;;;;4.85;2.30;;;;;;;;;;5075850;28;20545;-80
2022/03/11 12:23:05;;;;;;;3.35;1.98;;;;;;;;;;5072566;28;20099;-81
2022/03/11 12:25:33;;;;;;;3.63;2.13;;;;;;;;;;5066947;28;20208;-80
2022/03/11 12:28:33;;;;;;;4.65;2.13;;;;;;;;;;5070406;28;20049;-80
2022/03/11 12:31:09;;;;;;;4.53;2.45;;;;;;;;;;5071190;28;20131;-80
2022/03/11 12:33:42;;;;;;;4.22;2.70;;;;;;;;;;5072452;28;20052;-80
2022/03/11 12:36:13;;;;;;;3.65;2.38;;;;;;;;;;5073608;28;20044;-80
2022/03/11 12:38:39;;;;;;;4.10;2.50;;;;;;;;;;5071958;28;20098;-80
2022/03/11 12:41:06;;;;;;;3.20;2.13;;;;;;;;;;5074307;28;20064;-80
2022/03/11 12:43:32;;;;;;;3.70;1.83;;;;;;;;;;5068290;28;20040;-80
2022/03/11 12:46:02;;;;;;;6.63;2.42;;;;;;;;;;5068449;28;20072;-81
2022/03/11 12:48:30;;;;;;;4.28;2.05;;;;;;;;;;5070678;28;20095;-81
2022/03/11 12:50:56;;;;;;;6.20;2.80;;;;;;;;;;5063994;28;20651;-80
2022/03/11 12:53:23;;;;;;;4.15;1.92;;;;;;;;;;5073069;28;20123;-80
2022/03/11 12:55:51;;;;;;;3.85;2.30;;;;;;;;;;5077659;28;20045;-80
2022/03/11 12:58:20;;;;;;;4.13;2.35;;;;;;;;;;5071288;28;21009;-81
2022/03/11 13:00:46;;;;;;;5.40;2.60;;;;;;;;;;5067274;28;20037;-81
2022/03/11 13:03:21;;;;;;;3.15;1.95;;;;;;;;;;5074145;28;20601;-80
2022/03/11 13:05:50;;;;;;;5.03;1.85;;;;;;;;;;5070601;28;20110;-80
2022/03/11 13:08:17;;;;;;;6.55;2.10;;;;;;;;;;5067227;28;20041;-76
2022/03/11 13:10:51;;;;;;;6.28;2.40;;;;;;;;;;5071533;28;20128;-80
2022/03/11 13:13:20;;;;;;;7.43;2.70;;;;;;;;;;5070079;28;21025;-77
2022/03/11 13:15:49;;;;;;;6.10;2.45;;;;;;;;;;5063703;28;20071;-77
2022/03/11 13:18:20;;;;;;;6.93;2.70;;;;;;;;;;5066722;28;20072;-77
2022/03/11 13:21:03;;;;;;;7.53;2.55;;;;;;;;;;5070212;28;20045;-77
2022/03/11 13:23:33;;;;;;;3.90;2.00;;;;;;;;;;5057476;28;20172;-77
2022/03/11 13:26:01;;;;;;;3.50;2.22;;;;;;;;;;5068366;28;20051;-77
2022/03/11 13:28:40;;;;;;;2.58;1.35;;;;;;;;;;5072940;28;20041;-78
2022/03/11 13:31:24;;;;;;;3.05;1.38;;;;;;;;;;5073424;28;20048;-78
2022/03/11 13:34:00;;;;;;;2.47;1.50;;;;;;;;;;5069686;28;20056;-77
2022/03/11 13:36:35;;;;;;;2.50;1.50;;;;;;;;;;5063836;28;20052;-77
2022/03/11 13:39:04;;;;;;;4.00;1.60;;;;;;;;;;5068901;28;20052;-77
2022/03/11 13:41:40;;;;;;;4.72;1.58;;;;;;;;;;5071070;28;20057;-78
2022/03/11 13:44:16;;;;;;;2.67;1.40;;;;;;;;;;5065923;28;20036;-77
2022/03/11 13:46:52;;;;;;;6.18;1.35;;;;;;;;;;5069885;28;20033;-77
2022/03/11 13:49:21;;;;;;;2.53;1.40;;;;;;;;;;5071971;28;20044;-77
2022/03/11 13:51:58;;;;;;;1.85;1.10;;;;;;;;;;5071964;28;20048;-77
2022/03/11 13:54:34;;;;;;;1.45;0.88;;;;;;;;;;5068241;28;20118;-76
2022/03/11 13:57:16;;;;;;;1.45;0.77;;;;;;;;;;5068793;28;20036;-77
2022/03/11 13:59:42;;;;;;;2.53;0.70;;;;;;;;;;5072072;28;20041;-77
2022/03/11 14:02:13;;;;;;;1.27;0.80;;;;;;;;;;5071878;28;20111;-77
2022/03/11 14:04:39;;;;;;;1.15;0.73;;;;;;;;;;5068369;28;20569;-76
2022/03/11 14:07:18;;;;;;;1.55;0.80;;;;;;;;;;5063385;28;20562;-76
2022/03/11 14:09:53;;;;;;;2.33;0.90;;;;;;;;;;5071733;28;20072;-77
2022/03/11 14:12:26;;;;;;;2.08;0.90;;;;;;;;;;5067710;28;20044;-77
2022/03/11 14:15:12;;;;;;;1.77;1.05;;;;;;;;;;5069098;28;20136;-77
2022/03/11 14:17:39;;;;;;;5.43;0.90;;;;;;;;;;5072732;28;20688;-76
2022/03/11 14:20:06;;;;;;;2.40;1.08;;;;;;;;;;5075916;28;20040;-77
2022/03/11 14:22:34;;;;;;;1.58;1.10;;;;;;;;;;5068250;28;20127;-77
2022/03/11 14:25:01;;;;;;;2.45;1.00;;;;;;;;;;5070656;28;20040;-77
2022/03/11 14:27:27;;;;;;;1.42;0.70;;;;;;;;;;5073103;28;20043;-77
2022/03/11 14:29:53;;;;;;;2.15;1.30;;;;;;;;;;5073023;28;20523;-77
2022/03/11 14:32:19;;;;;;;1.33;0.63;;;;;;;;;;5067506;28;20108;-77
2022/03/11 14:34:45;;;;;;;1.65;1.02;;;;;;;;;;5076153;28;20106;-77
2022/03/11 14:37:11;;;;;;;1.88;0.95;;;;;;;;;;5066261;28;20045;-77
2022/03/11 14:39:38;;;;;;;1.38;0.65;;;;;;;;;;5073088;28;20523;-77
2022/03/11 14:42:05;;;;;;;1.60;1.00;;;;;;;;;;5074330;28;20044;-77
2022/03/11 14:44:31;;;;;;;2.05;0.82;;;;;;;;;;5069429;28;20091;-78
2022/03/11 14:46:57;;;;;;;2.25;0.85;;;;;;;;;;5070615;28;20114;-77
2022/03/11 14:49:24;;;;;;;0.77;0.55;;;;;;;;;;5067473;28;20041;-76
2022/03/11 14:51:50;;;;;;;0.50;0.45;;;;;;;;;;5069928;28;20136;-77
2022/03/11 14:54:16;;;;;;;2.65;1.20;;;;;;;;;;5067739;28;20048;-77